createdAt,value
2016-07-23T00:00:23.481Z,74.44
2016-07-23T00:01:23.467Z,75.12
2016-07-23T00:02:23.454Z,74.93
2016-07-23T00:03:23.449Z,74.77
2016-07-23T00:04:23.422Z,75.22
2016-07-23T00:05:23.417Z,75.6
2016-07-23T00:06:23.399Z,74.83
2016-07-23T00:07:23.383Z,75.06
2016-07-23T00:08:23.377Z,75.41
2016-07-23T00:09:23.357Z,76.09
2016-07-23T00:10:23.344Z,76.43
2016-07-23T00:11:23.331Z,76.24
2016-07-23T00:12:23.311Z,76.82
2016-07-23T00:13:23.297Z,76.15
2016-07-23T00:14:23.288Z,75.6
2016-07-23T00:15:23.269Z,75.16
2016-07-23T00:16:23.253Z,75.26
2016-07-23T00:17:23.241Z,75.41
2016-07-23T00:18:23.227Z,75.51
2016-07-23T00:19:22.496Z,75.22
2016-07-23T00:20:23.199Z,74.68
2016-07-23T00:21:23.181Z,74.19
2016-07-23T00:22:23.161Z,74
2016-07-23T00:23:23.145Z,73.52
2016-07-23T00:24:23.132Z,73.52
2016-07-23T00:25:23.121Z,73.61
2016-07-23T00:26:23.102Z,74
2016-07-23T00:27:23.088Z,73.8
2016-07-23T00:28:23.073Z,74
2016-07-23T00:29:23.060Z,74.29
2016-07-23T00:30:23.047Z,73.8
2016-07-23T00:31:23.026Z,74
2016-07-23T00:32:23.019Z,73.9
2016-07-23T00:33:23.001Z,74.48
2016-07-23T00:34:22.989Z,73.71
2016-07-23T00:35:22.974Z,74.29
2016-07-23T00:36:22.963Z,74.38
2016-07-23T00:37:22.946Z,74
2016-07-23T00:38:22.935Z,74.68
2016-07-23T00:39:22.909Z,73.9
2016-07-23T00:40:22.897Z,74.29
2016-07-23T00:41:22.883Z,74.48
2016-07-23T00:42:22.164Z,74.77
2016-07-23T00:43:22.853Z,74.77
2016-07-23T00:44:22.835Z,74.68
2016-07-23T00:45:22.825Z,74.68
2016-07-23T00:46:22.810Z,74.64
2016-07-23T00:47:22.798Z,75.16
2016-07-23T00:48:22.787Z,75.74
2016-07-23T00:49:22.769Z,75.22
2016-07-23T00:50:22.750Z,75.22
2016-07-23T00:51:22.744Z,75.54
2016-07-23T00:52:22.725Z,75.79
2016-07-23T00:53:22.709Z,75.51
2016-07-23T00:54:22.692Z,74.83
2016-07-23T00:55:22.675Z,74.83
2016-07-23T00:56:22.660Z,74.58
2016-07-23T00:57:22.646Z,75.06
2016-07-23T00:58:22.635Z,75.31
2016-07-23T00:59:21.905Z,75.16
2016-07-23T01:00:22.610Z,74.73
2016-07-23T01:01:22.594Z,75.41
2016-07-23T01:02:21.864Z,75.22
2016-07-23T01:03:22.559Z,75.16
2016-07-23T01:04:22.541Z,75.35
2016-07-23T01:05:22.527Z,75.79
2016-07-23T01:06:22.510Z,75.41
2016-07-23T01:07:22.496Z,75.51
2016-07-23T01:08:22.487Z,75.45
2016-07-23T01:09:22.475Z,75.31
2016-07-23T01:10:22.453Z,75.51
2016-07-23T01:11:22.442Z,75.31
2016-07-23T01:12:22.423Z,75.54
2016-07-23T01:13:22.409Z,75.51
2016-07-23T01:14:22.398Z,75.7
2016-07-23T01:15:22.379Z,75.51
2016-07-23T01:16:22.361Z,75.22
2016-07-23T01:17:22.350Z,76.09
2016-07-23T01:18:22.339Z,75.7
2016-07-23T01:19:22.323Z,75.6
2016-07-23T01:20:22.305Z,75.02
2016-07-23T01:21:22.291Z,74.93
2016-07-23T01:22:22.278Z,74.48
2016-07-23T01:23:22.263Z,75.89
2016-07-23T01:24:22.256Z,76.28
2016-07-23T01:25:22.234Z,77.3
2016-07-23T01:26:22.211Z,76.15
2016-07-23T01:27:22.200Z,76.28
2016-07-23T01:28:22.185Z,77.25
2016-07-23T01:29:22.178Z,77.01
2016-07-23T01:30:22.159Z,76.92
2016-07-23T01:31:21.442Z,77.01
2016-07-23T01:32:22.128Z,77.59
2016-07-23T01:33:22.113Z,77.78
2016-07-23T01:34:22.095Z,77.78
2016-07-23T01:35:22.079Z,76.82
2016-07-23T01:36:22.067Z,76.53
2016-07-23T01:37:22.054Z,75.89
2016-07-23T01:38:22.037Z,75.89
2016-07-23T01:39:22.019Z,75.99
2016-07-23T01:40:22.007Z,76.76
2016-07-23T01:41:21.993Z,76.53
2016-07-23T01:42:21.974Z,76.63
2016-07-23T01:43:21.961Z,77.5
2016-07-23T01:44:21.945Z,78.08
2016-07-23T01:45:21.936Z,78.27
2016-07-23T01:46:21.205Z,77.98
2016-07-23T01:47:21.908Z,77.88
2016-07-23T01:48:21.889Z,78.17
2016-07-23T01:49:21.869Z,77.98
2016-07-23T01:50:21.411Z,78.85
2016-07-23T01:51:21.845Z,79
2016-07-23T01:52:21.829Z,78.42
2016-07-23T01:53:21.808Z,78.46
2016-07-23T01:54:21.088Z,77.59
2016-07-23T01:55:21.787Z,77.21
2016-07-23T01:56:21.770Z,76.92
2016-07-23T01:57:21.758Z,76.28
2016-07-23T01:58:21.733Z,77.25
2016-07-23T01:59:21.720Z,77.01
2016-07-23T02:00:21.709Z,76.63
2016-07-23T02:01:21.693Z,76.09
2016-07-23T02:02:20.970Z,75.7
2016-07-23T02:03:21.669Z,75.31
2016-07-23T02:04:21.654Z,75.51
2016-07-23T02:05:21.635Z,75.41
2016-07-23T02:06:21.615Z,75.22
2016-07-23T02:07:21.606Z,75.99
2016-07-23T02:08:21.589Z,75.99
2016-07-23T02:09:21.573Z,76.09
2016-07-23T02:10:21.557Z,75.41
2016-07-23T02:11:21.540Z,75.51
2016-07-23T02:12:21.528Z,75.7
2016-07-23T02:13:21.507Z,75.51
2016-07-23T02:14:21.497Z,75.6
2016-07-23T02:15:21.479Z,75.31
2016-07-23T02:16:21.467Z,75.22
2016-07-23T02:17:21.469Z,75.41
2016-07-23T02:18:21.441Z,75.41
2016-07-23T02:19:21.423Z,75.99
2016-07-23T02:20:21.408Z,76.53
2016-07-23T02:21:21.394Z,75.95
2016-07-23T02:22:21.389Z,77.11
2016-07-23T02:23:21.359Z,76.92
2016-07-23T02:24:21.350Z,77.59
2016-07-23T02:25:21.332Z,78.27
2016-07-23T02:26:21.475Z,78.46
2016-07-23T02:27:21.301Z,78.33
2016-07-23T02:28:21.290Z,78.27
2016-07-23T02:29:21.270Z,77.78
2016-07-23T02:30:21.258Z,78.46
2016-07-23T02:31:21.236Z,78.75
2016-07-23T02:32:21.226Z,79
2016-07-23T02:33:21.212Z,78.91
2016-07-23T02:34:21.199Z,79.1
2016-07-23T02:35:21.177Z,78.81
2016-07-23T02:36:21.169Z,79
2016-07-23T02:37:21.151Z,78.61
2016-07-23T02:38:21.137Z,79.39
2016-07-23T02:39:21.123Z,79.87
2016-07-23T02:40:21.105Z,79.49
2016-07-23T02:41:21.088Z,78.94
2016-07-23T02:42:21.071Z,78.71
2016-07-23T02:43:21.065Z,79.19
2016-07-23T02:44:21.048Z,78.71
2016-07-23T02:45:21.027Z,78.91
2016-07-23T02:46:21.017Z,78.61
2016-07-23T02:47:21.010Z,79.1
2016-07-23T02:48:20.986Z,80.06
2016-07-23T02:49:20.258Z,80.35
2016-07-23T02:50:20.956Z,80.16
2016-07-23T02:51:20.941Z,80.35
2016-07-23T02:52:20.923Z,80.12
2016-07-23T02:53:20.908Z,80.16
2016-07-23T02:54:20.895Z,79.68
2016-07-23T02:55:20.878Z,79.68
2016-07-23T02:56:20.868Z,79
2016-07-23T02:57:20.843Z,79.1
2016-07-23T02:58:20.831Z,79.68
2016-07-23T02:59:20.818Z,79.39
2016-07-23T03:00:20.089Z,79.1
2016-07-23T03:01:20.785Z,79.97
2016-07-23T03:02:20.778Z,79.29
2016-07-23T03:03:20.044Z,79.39
2016-07-23T03:04:20.737Z,79.68
2016-07-23T03:05:20.732Z,79.19
2016-07-23T03:06:20.712Z,78.42
2016-07-23T03:07:20.698Z,78.36
2016-07-23T03:08:20.687Z,78.52
2016-07-23T03:09:20.665Z,78.81
2016-07-23T03:10:20.656Z,79
2016-07-23T03:11:20.634Z,78.52
2016-07-23T03:12:20.618Z,78.33
2016-07-23T03:13:20.602Z,77.88
2016-07-23T03:14:20.591Z,78.36
2016-07-23T03:15:20.570Z,79.14
2016-07-23T03:16:20.554Z,79.19
2016-07-23T03:17:20.553Z,78.91
2016-07-23T03:18:20.529Z,79.87
2016-07-23T03:19:20.511Z,79.83
2016-07-23T03:20:20.495Z,79.39
2016-07-23T03:21:19.769Z,79
2016-07-23T03:22:19.757Z,79.19
2016-07-23T03:23:20.449Z,78.33
2016-07-23T03:24:20.431Z,77.11
2016-07-23T03:25:20.419Z,77.21
2016-07-23T03:26:20.398Z,76.53
2016-07-23T03:27:20.393Z,76.05
2016-07-23T03:28:20.371Z,77.11
2016-07-23T03:29:20.361Z,77.3
2016-07-23T03:30:20.339Z,76.92
2016-07-23T03:31:19.622Z,76.72
2016-07-23T03:32:20.308Z,76.53
2016-07-23T03:33:20.304Z,76.34
2016-07-23T03:34:20.283Z,76.34
2016-07-23T03:35:20.271Z,78.36
2016-07-23T03:36:20.246Z,77.84
2016-07-23T03:37:20.233Z,77.3
2016-07-23T03:38:20.220Z,77.59
2016-07-23T03:39:20.210Z,77.11
2016-07-23T03:40:20.192Z,77.88
2016-07-23T03:41:20.176Z,78.33
2016-07-23T03:42:20.161Z,78.42
2016-07-23T03:43:20.145Z,77.94
2016-07-23T03:44:20.129Z,78.17
2016-07-23T03:45:20.120Z,77.5
2016-07-23T03:46:20.095Z,77.3
2016-07-23T03:47:20.083Z,77.11
2016-07-23T03:48:20.070Z,76.34
2016-07-23T03:49:20.054Z,76.05
2016-07-23T03:50:20.034Z,76.53
2016-07-23T03:51:20.028Z,77.01
2016-07-23T03:52:20.009Z,76.53
2016-07-23T03:53:19.993Z,76.34
2016-07-23T03:54:19.979Z,77.3
2016-07-23T03:55:19.958Z,76.53
2016-07-23T03:56:19.944Z,76.92
2016-07-23T03:57:19.931Z,76.43
2016-07-23T03:58:19.917Z,76.82
2016-07-23T03:59:19.898Z,76.34
2016-07-23T04:00:19.884Z,76.72
2016-07-23T04:01:19.870Z,76.63
2016-07-23T04:02:19.850Z,76.92
2016-07-23T04:03:19.837Z,76.72
2016-07-23T04:04:19.825Z,76.63
2016-07-23T04:05:19.814Z,77.21
2016-07-23T04:06:19.796Z,77.11
2016-07-23T04:07:19.790Z,76.53
2016-07-23T04:08:19.055Z,76.24
2016-07-23T04:09:19.749Z,76.43
2016-07-23T04:10:19.731Z,76.92
2016-07-23T04:11:19.724Z,76.92
2016-07-23T04:12:19.702Z,76.63
2016-07-23T04:13:19.693Z,76.63
2016-07-23T04:14:19.682Z,76.53
2016-07-23T04:15:18.943Z,76.82
2016-07-23T04:16:19.633Z,76.82
2016-07-23T04:17:19.623Z,76.43
2016-07-23T04:18:19.607Z,76.34
2016-07-23T04:19:19.602Z,76.92
2016-07-23T04:20:19.582Z,77.01
2016-07-23T04:21:19.563Z,76.82
2016-07-23T04:22:19.553Z,77.11
2016-07-23T04:23:19.535Z,76.92
2016-07-23T04:24:19.526Z,77.5
2016-07-23T04:25:19.506Z,78.17
2016-07-23T04:26:19.498Z,77.36
2016-07-23T04:27:19.475Z,77.11
2016-07-23T04:28:19.459Z,76.72
2016-07-23T04:29:19.441Z,76.05
2016-07-23T04:30:19.430Z,76.24
2016-07-23T04:31:19.409Z,77.11
2016-07-23T04:32:19.400Z,76.34
2016-07-23T04:33:19.382Z,76.34
2016-07-23T04:34:19.373Z,76.92
2016-07-23T04:35:19.349Z,76.43
2016-07-23T04:36:19.336Z,77.78
2016-07-23T04:37:19.321Z,77.84
2016-07-23T04:38:19.311Z,77.69
2016-07-23T04:39:19.299Z,77.3
2016-07-23T04:40:19.271Z,76.82
2016-07-23T04:41:19.257Z,76.24
2016-07-23T04:42:19.251Z,76.15
2016-07-23T04:43:19.228Z,75.51
2016-07-23T04:44:19.209Z,75.7
2016-07-23T04:45:19.200Z,74.93
2016-07-23T04:46:19.179Z,75.12
2016-07-23T04:47:18.459Z,74.64
2016-07-23T04:48:19.157Z,74.68
2016-07-23T04:49:19.139Z,74.83
2016-07-23T04:50:19.126Z,74.68
2016-07-23T04:51:18.393Z,74.35
2016-07-23T04:52:19.090Z,74.06
2016-07-23T04:53:19.083Z,74.68
2016-07-23T04:54:19.068Z,74.19
2016-07-23T04:55:19.049Z,74
2016-07-23T04:56:18.322Z,74.1
2016-07-23T04:57:18.306Z,74.29
2016-07-23T04:58:18.292Z,74.48
2016-07-23T04:59:18.989Z,74.38
2016-07-23T05:00:18.967Z,74.48
2016-07-23T05:01:18.959Z,73.9
2016-07-23T05:02:18.941Z,73.9
2016-07-23T05:03:18.925Z,74.19
2016-07-23T05:04:18.905Z,74.19
2016-07-23T05:05:18.900Z,74
2016-07-23T05:06:18.879Z,73.71
2016-07-23T05:07:18.869Z,73.61
2016-07-23T05:08:18.851Z,74.19
2016-07-23T05:09:18.836Z,73.42
2016-07-23T05:10:18.815Z,73.71
2016-07-23T05:11:18.809Z,73.61
2016-07-23T05:12:18.786Z,73.71
2016-07-23T05:13:18.784Z,73.61
2016-07-23T05:14:18.763Z,73.71
2016-07-23T05:15:18.744Z,73.8
2016-07-23T05:16:18.727Z,73.71
2016-07-23T05:17:18.719Z,73.65
2016-07-23T05:18:18.697Z,73.42
2016-07-23T05:19:18.685Z,73.61
2016-07-23T05:20:18.674Z,73.52
2016-07-23T05:21:18.659Z,73.55
2016-07-23T05:22:18.638Z,73.52
2016-07-23T05:23:18.630Z,73.42
2016-07-23T05:24:18.605Z,72.97
2016-07-23T05:25:18.602Z,73.16
2016-07-23T05:26:18.578Z,73.26
2016-07-23T05:27:18.579Z,73.22
2016-07-23T05:28:18.554Z,73.36
2016-07-23T05:29:18.535Z,72.88
2016-07-23T05:30:18.520Z,72.88
2016-07-23T05:31:18.509Z,73.26
2016-07-23T05:32:17.785Z,73.46
2016-07-23T05:33:18.479Z,73.07
2016-07-23T05:34:18.474Z,73.16
2016-07-23T05:35:17.736Z,73.16
2016-07-23T05:36:18.431Z,72.97
2016-07-23T05:37:18.410Z,72.58
2016-07-23T05:38:18.398Z,72.49
2016-07-23T05:39:18.396Z,72.68
2016-07-23T05:40:17.665Z,72.39
2016-07-23T05:41:17.648Z,72.88
2016-07-23T05:42:18.337Z,72.78
2016-07-23T05:43:18.330Z,72.78
2016-07-23T05:44:18.315Z,72.78
2016-07-23T05:45:18.295Z,72.78
2016-07-23T05:46:18.281Z,72.58
2016-07-23T05:47:18.278Z,72.39
2016-07-23T05:48:18.260Z,72.78
2016-07-23T05:49:18.243Z,72.58
2016-07-23T05:50:18.221Z,72.3
2016-07-23T05:51:18.206Z,72.1
2016-07-23T05:52:18.189Z,72.49
2016-07-23T05:53:18.178Z,72.39
2016-07-23T05:54:18.159Z,72.2
2016-07-23T05:55:18.149Z,72.39
2016-07-23T05:56:18.134Z,72.3
2016-07-23T05:57:18.119Z,72.2
2016-07-23T05:58:18.108Z,71.52
2016-07-23T05:59:18.097Z,72.2
2016-07-23T06:00:18.075Z,71.42
2016-07-23T06:01:18.062Z,71.62
2016-07-23T06:02:18.050Z,71.81
2016-07-23T06:03:18.034Z,71.81
2016-07-23T06:04:17.310Z,71.81
2016-07-23T06:05:18.004Z,71.91
2016-07-23T06:06:17.984Z,71.52
2016-07-23T06:07:17.970Z,71.81
2016-07-23T06:08:17.956Z,71.14
2016-07-23T06:09:17.941Z,71.81
2016-07-23T06:10:17.220Z,71.23
2016-07-23T06:11:17.203Z,71.33
2016-07-23T06:12:17.907Z,70.94
2016-07-23T06:13:17.894Z,71.14
2016-07-23T06:14:17.871Z,71.14
2016-07-23T06:15:17.855Z,71.23
2016-07-23T06:16:17.852Z,71.26
2016-07-23T06:17:17.821Z,71.17
2016-07-23T06:18:17.810Z,71.23
2016-07-23T06:19:17.790Z,71.33
2016-07-23T06:20:17.794Z,71.42
2016-07-23T06:21:17.768Z,71.46
2016-07-23T06:22:17.750Z,71.14
2016-07-23T06:23:17.733Z,71.62
2016-07-23T06:24:17.723Z,71.46
2016-07-23T06:25:17.705Z,71.08
2016-07-23T06:26:17.700Z,70.75
2016-07-23T06:27:17.680Z,71.66
2016-07-23T06:28:17.662Z,71.08
2016-07-23T06:29:17.648Z,71.36
2016-07-23T06:30:17.637Z,71.08
2016-07-23T06:31:17.615Z,70.78
2016-07-23T06:32:17.602Z,71.46
2016-07-23T06:33:17.589Z,71.36
2016-07-23T06:34:17.582Z,70.98
2016-07-23T06:35:16.857Z,71.08
2016-07-23T06:36:17.551Z,70.5
2016-07-23T06:37:17.529Z,70.88
2016-07-23T06:38:17.522Z,70.59
2016-07-23T06:39:17.507Z,70.88
2016-07-23T06:40:17.486Z,70.68
2016-07-23T06:41:16.775Z,70.88
2016-07-23T06:42:17.457Z,70.88
2016-07-23T06:43:17.449Z,70.88
2016-07-23T06:44:17.428Z,70.2
2016-07-23T06:45:17.411Z,70.68
2016-07-23T06:46:16.693Z,70.88
2016-07-23T06:47:17.382Z,70.68
2016-07-23T06:48:17.364Z,70.78
2016-07-23T06:49:17.356Z,70.88
2016-07-23T06:50:17.344Z,70.59
2016-07-23T06:51:17.326Z,70.88
2016-07-23T06:52:17.309Z,71.17
2016-07-23T06:53:17.310Z,70.59
2016-07-23T06:54:17.284Z,70.88
2016-07-23T06:55:17.264Z,70.88
2016-07-23T06:56:17.252Z,70.2
2016-07-23T06:57:17.234Z,70.2
2016-07-23T06:58:17.222Z,70.68
2016-07-23T06:59:17.206Z,70.3
2016-07-23T07:00:17.201Z,70.68
2016-07-23T07:01:17.179Z,70.2
2016-07-23T07:02:17.164Z,70.2
2016-07-23T07:03:16.440Z,70.68
2016-07-23T07:04:17.133Z,70.68
2016-07-23T07:05:17.118Z,70.68
2016-07-23T07:06:17.105Z,70.4
2016-07-23T07:07:17.089Z,70.68
2016-07-23T07:08:17.076Z,69.82
2016-07-23T07:09:17.066Z,70.2
2016-07-23T07:10:17.050Z,70.3
2016-07-23T07:11:17.038Z,70.59
2016-07-23T07:12:17.017Z,70.5
2016-07-23T07:13:17.003Z,70.4
2016-07-23T07:14:16.988Z,70.4
2016-07-23T07:15:16.983Z,70.59
2016-07-23T07:16:16.962Z,70.4
2016-07-23T07:17:16.957Z,70.68
2016-07-23T07:18:16.930Z,70.5
2016-07-23T07:19:16.927Z,70.78
2016-07-23T07:20:16.904Z,70.68
2016-07-23T07:21:16.892Z,69.92
2016-07-23T07:22:16.167Z,70.5
2016-07-23T07:23:16.855Z,70.4
2016-07-23T07:24:16.847Z,70.3
2016-07-23T07:25:16.827Z,70.88
2016-07-23T07:26:16.816Z,69.92
2016-07-23T07:27:16.801Z,69.82
2016-07-23T07:28:16.783Z,70.68
2016-07-23T07:29:16.764Z,70.24
2016-07-23T07:30:16.752Z,70.59
2016-07-23T07:31:16.745Z,70.3
2016-07-23T07:32:16.728Z,70.4
2016-07-23T07:33:16.716Z,70.5
2016-07-23T07:34:16.694Z,70.78
2016-07-23T07:35:16.685Z,70.2
2016-07-23T07:36:16.672Z,70.68
2016-07-23T07:38:16.640Z,70.68
2016-07-23T07:39:16.631Z,70.59
2016-07-23T07:40:15.907Z,70.68
2016-07-23T07:41:16.597Z,70.59
2016-07-23T07:42:16.582Z,70.2
2016-07-23T07:43:16.574Z,70.59
2016-07-23T07:44:16.557Z,70.3
2016-07-23T07:45:16.541Z,70.4
2016-07-23T07:46:16.533Z,70.78
2016-07-23T07:47:16.513Z,70.88
2016-07-23T07:48:16.498Z,70.5
2016-07-23T07:49:16.487Z,70.5
2016-07-23T07:50:16.468Z,70.3
2016-07-23T07:51:15.745Z,70.72
2016-07-23T07:52:16.435Z,70.53
2016-07-23T07:53:16.422Z,70.5
2016-07-23T07:54:16.414Z,70.68
2016-07-23T07:55:16.395Z,70.82
2016-07-23T07:56:16.384Z,70.43
2016-07-23T07:57:16.367Z,70.5
2016-07-23T07:58:16.356Z,70.24
2016-07-23T07:59:16.338Z,70.34
2016-07-23T08:00:16.326Z,70.72
2016-07-23T08:01:16.308Z,70.34
2016-07-23T08:02:16.289Z,70.5
2016-07-23T08:03:16.294Z,70.62
2016-07-23T08:04:16.266Z,70.78
2016-07-23T08:05:16.250Z,70.2
2016-07-23T08:06:16.242Z,70.92
2016-07-23T08:07:16.274Z,70.4
2016-07-23T08:08:16.207Z,70.72
2016-07-23T08:09:16.193Z,70.82
2016-07-23T08:10:16.193Z,70.43
2016-07-23T08:11:16.164Z,70.53
2016-07-23T08:12:16.153Z,70.53
2016-07-23T08:13:16.135Z,70.53
2016-07-23T08:14:16.123Z,70.53
2016-07-23T08:15:15.398Z,70.82
2016-07-23T08:16:16.091Z,70.53
2016-07-23T08:17:16.074Z,70.92
2016-07-23T08:18:16.080Z,70.62
2016-07-23T08:19:16.056Z,70.43
2016-07-23T08:20:15.326Z,70.53
2016-07-23T08:21:16.024Z,70.82
2016-07-23T08:22:16.006Z,70.43
2016-07-23T08:23:16.003Z,70.43
2016-07-23T08:24:15.980Z,70.24
2016-07-23T08:25:15.962Z,70.43
2016-07-23T08:26:15.951Z,70.82
2016-07-23T08:27:15.224Z,70.82
2016-07-23T08:28:15.921Z,70.62
2016-07-23T08:29:15.905Z,70.34
2016-07-23T08:30:15.176Z,70.82
2016-07-23T08:31:15.882Z,70.53
2016-07-23T08:32:15.859Z,70.43
2016-07-23T08:33:15.848Z,70.43
2016-07-23T08:34:15.829Z,70.43
2016-07-23T08:35:15.105Z,70.72
2016-07-23T08:36:15.807Z,70.24
2016-07-23T08:37:15.784Z,70.53
2016-07-23T08:38:15.774Z,70.62
2016-07-23T08:39:15.762Z,70.43
2016-07-23T08:40:15.740Z,70.62
2016-07-23T08:41:15.728Z,70.43
2016-07-23T08:42:15.717Z,70.62
2016-07-23T08:43:15.701Z,70.24
2016-07-23T08:44:15.683Z,70.24
2016-07-23T08:45:15.676Z,70.34
2016-07-23T08:46:15.671Z,70.34
2016-07-23T08:47:15.637Z,70.34
2016-07-23T08:48:15.626Z,70.53
2016-07-23T08:49:15.620Z,70.43
2016-07-23T08:50:15.608Z,70.24
2016-07-23T08:51:15.589Z,70.53
2016-07-23T08:52:15.568Z,70.43
2016-07-23T08:53:15.563Z,70.43
2016-07-23T08:54:15.549Z,70.24
2016-07-23T08:55:15.535Z,70.92
2016-07-23T08:56:15.525Z,70.43
2016-07-23T08:57:14.792Z,70.34
2016-07-23T08:58:15.480Z,70.34
2016-07-23T08:59:15.473Z,70.24
2016-07-23T09:00:15.464Z,70.62
2016-07-23T09:01:15.446Z,70.62
2016-07-23T09:02:15.440Z,70.53
2016-07-23T09:03:15.423Z,70.53
2016-07-23T09:04:15.403Z,70.72
2016-07-23T09:05:15.390Z,70.72
2016-07-23T09:06:15.385Z,70.72
2016-07-23T09:07:15.360Z,70.72
2016-07-23T09:08:15.344Z,70.66
2016-07-23T09:09:15.337Z,70.72
2016-07-23T09:10:15.324Z,70.14
2016-07-23T09:11:15.307Z,69.95
2016-07-23T09:12:15.292Z,69.89
2016-07-23T09:13:15.280Z,69.85
2016-07-23T09:14:15.264Z,70.08
2016-07-23T09:15:15.248Z,69.89
2016-07-23T09:16:15.233Z,69.98
2016-07-23T09:17:15.211Z,70.08
2016-07-23T09:18:15.210Z,69.89
2016-07-23T09:19:15.191Z,69.79
2016-07-23T09:20:15.183Z,69.79
2016-07-23T09:21:15.165Z,69.98
2016-07-23T09:22:15.150Z,70.08
2016-07-23T09:23:15.132Z,69.98
2016-07-23T09:24:15.121Z,69.59
2016-07-23T09:25:15.107Z,69.98
2016-07-23T09:26:15.091Z,69.69
2016-07-23T09:27:15.075Z,69.79
2016-07-23T09:28:15.068Z,69.4
2016-07-23T09:29:15.052Z,69.89
2016-07-23T09:30:15.038Z,69.89
2016-07-23T09:31:15.024Z,69.89
2016-07-23T09:32:15.008Z,69.79
2016-07-23T09:33:14.287Z,69.89
2016-07-23T09:34:14.979Z,69.98
2016-07-23T09:35:14.964Z,70.08
2016-07-23T09:36:14.953Z,69.89
2016-07-23T09:37:14.935Z,69.89
2016-07-23T09:38:14.926Z,69.98
2016-07-23T09:39:14.907Z,69.89
2016-07-23T09:40:14.897Z,69.59
2016-07-23T09:41:14.880Z,69.89
2016-07-23T09:42:14.867Z,69.89
2016-07-23T09:43:14.854Z,69.98
2016-07-23T09:44:14.851Z,69.89
2016-07-23T09:45:14.830Z,69.89
2016-07-23T09:46:14.097Z,69.89
2016-07-23T09:47:14.805Z,69.89
2016-07-23T09:48:14.779Z,69.89
2016-07-23T09:49:14.766Z,69.79
2016-07-23T09:50:14.749Z,69.89
2016-07-23T09:51:14.744Z,70.18
2016-07-23T09:52:14.721Z,69.69
2016-07-23T09:53:14.713Z,69.79
2016-07-23T09:54:14.695Z,70.08
2016-07-23T09:55:14.677Z,70.08
2016-07-23T09:56:14.666Z,69.89
2016-07-23T09:57:14.650Z,69.79
2016-07-23T09:58:13.929Z,69.89
2016-07-23T09:59:14.620Z,69.89
2016-07-23T10:00:14.610Z,69.79
2016-07-23T10:01:14.604Z,69.79
2016-07-23T10:02:14.585Z,70.56
2016-07-23T10:03:14.572Z,70.37
2016-07-23T10:04:13.845Z,69.89
2016-07-23T10:05:14.537Z,69.98
2016-07-23T10:06:14.531Z,70.27
2016-07-23T10:07:14.505Z,69.59
2016-07-23T10:08:14.498Z,70.08
2016-07-23T10:09:14.480Z,69.59
2016-07-23T10:10:14.477Z,70.18
2016-07-23T10:11:14.453Z,70.76
2016-07-23T10:12:14.452Z,70.95
2016-07-23T10:13:14.429Z,70.66
2016-07-23T10:14:14.411Z,71.44
2016-07-23T10:15:14.405Z,71.62
2016-07-23T10:16:14.399Z,71.34
2016-07-23T10:17:14.384Z,71.24
2016-07-23T10:18:14.355Z,71.82
2016-07-23T10:19:14.344Z,71.72
2016-07-23T10:20:14.327Z,72.3
2016-07-23T10:21:14.325Z,72.3
2016-07-23T10:22:14.306Z,72.89
2016-07-23T10:23:14.305Z,72.69
2016-07-23T10:24:14.281Z,72.79
2016-07-23T10:25:14.258Z,72.6
2016-07-23T10:26:14.246Z,72.79
2016-07-23T10:27:14.282Z,72.6
2016-07-23T10:28:14.229Z,72.5
2016-07-23T10:29:14.204Z,71.72
2016-07-23T10:30:14.187Z,71.53
2016-07-23T10:31:14.175Z,70.95
2016-07-23T10:32:14.160Z,71.04
2016-07-23T10:33:14.153Z,71.04
2016-07-23T10:34:14.141Z,71.24
2016-07-23T10:35:13.411Z,71.04
2016-07-23T10:36:14.101Z,71.53
2016-07-23T10:37:14.091Z,71.82
2016-07-23T10:38:14.088Z,72.11
2016-07-23T10:39:14.067Z,71.24
2016-07-23T10:40:14.059Z,71.62
2016-07-23T10:41:14.034Z,71.34
2016-07-23T10:42:14.019Z,71.44
2016-07-23T10:43:14.007Z,71.53
2016-07-23T10:44:13.287Z,71.44
2016-07-23T10:45:13.981Z,71.34
2016-07-23T10:46:13.962Z,71.92
2016-07-23T10:47:13.956Z,71.92
2016-07-23T10:48:13.941Z,72.5
2016-07-23T10:49:13.929Z,72.3
2016-07-23T10:50:13.206Z,71.53
2016-07-23T10:51:13.901Z,71.72
2016-07-23T10:52:13.882Z,72.17
2016-07-23T10:53:13.876Z,71.72
2016-07-23T10:54:13.854Z,71.72
2016-07-23T10:55:13.842Z,71.92
2016-07-23T10:56:13.820Z,71.92
2016-07-23T10:57:13.812Z,71.82
2016-07-23T10:58:13.795Z,71.62
2016-07-23T10:59:13.793Z,71.24
2016-07-23T11:00:13.770Z,71.34
2016-07-23T11:01:13.763Z,71.44
2016-07-23T11:02:13.746Z,71.14
2016-07-23T11:03:13.722Z,70.76
2016-07-23T11:04:13.710Z,70.86
2016-07-23T11:05:12.987Z,69.79
2016-07-23T11:06:13.686Z,68.63
2016-07-23T11:07:13.664Z,69.01
2016-07-23T11:08:13.658Z,67.18
2016-07-23T11:09:13.640Z,66.4
2016-07-23T11:10:12.922Z,66.5
2016-07-23T11:11:13.623Z,65.43
2016-07-23T11:12:13.606Z,65.24
2016-07-23T11:13:13.590Z,65.43
2016-07-23T11:14:13.569Z,64.66
2016-07-23T11:15:13.559Z,64.47
2016-07-23T11:16:13.555Z,64.95
2016-07-23T11:17:13.528Z,64.85
2016-07-23T11:18:13.517Z,65.14
2016-07-23T11:19:13.508Z,65.24
2016-07-23T11:20:13.489Z,64.17
2016-07-23T11:21:12.773Z,64.17
2016-07-23T11:22:13.460Z,63.69
2016-07-23T11:23:13.444Z,63.69
2016-07-23T11:24:13.440Z,63.89
2016-07-23T11:25:12.711Z,63.79
2016-07-23T11:26:12.695Z,63.59
2016-07-23T11:27:13.439Z,63.49
2016-07-23T11:28:13.368Z,63.59
2016-07-23T11:29:13.360Z,63.98
2016-07-23T11:30:13.347Z,63.69
2016-07-23T11:31:13.330Z,63.49
2016-07-23T11:32:13.319Z,63.59
2016-07-23T11:33:13.301Z,63.31
2016-07-23T11:34:13.285Z,63.31
2016-07-23T11:35:13.276Z,63.59
2016-07-23T11:36:13.258Z,63.31
2016-07-23T11:37:13.241Z,62.53
2016-07-23T11:38:13.237Z,62.63
2016-07-23T11:39:13.211Z,62.63
2016-07-23T11:40:13.201Z,62.63
2016-07-23T11:41:13.186Z,62.43
2016-07-23T11:42:13.179Z,62.24
2016-07-23T11:43:13.164Z,62.43
2016-07-23T11:44:12.437Z,62.34
2016-07-23T11:45:13.130Z,62.53
2016-07-23T11:46:13.112Z,61.95
2016-07-23T11:47:13.104Z,62.72
2016-07-23T11:48:13.081Z,62.43
2016-07-23T11:49:13.066Z,62.43
2016-07-23T11:50:13.055Z,62.72
2016-07-23T11:51:13.046Z,62.53
2016-07-23T11:52:13.035Z,62.63
2016-07-23T11:53:13.011Z,62.92
2016-07-23T11:54:12.997Z,62.53
2016-07-23T11:55:12.986Z,62.43
2016-07-23T11:56:12.962Z,61.46
2016-07-23T11:57:12.254Z,62.34
2016-07-23T11:58:12.937Z,62.04
2016-07-23T11:59:12.926Z,62.34
2016-07-23T12:00:12.909Z,62.43
2016-07-23T12:01:12.901Z,62.53
2016-07-23T12:02:12.888Z,62.04
2016-07-23T12:03:12.863Z,62.34
2016-07-23T12:04:12.852Z,62.53
2016-07-23T12:05:12.836Z,61.95
2016-07-23T12:06:12.831Z,62.24
2016-07-23T12:07:12.812Z,62.53
2016-07-23T12:08:12.793Z,62.24
2016-07-23T12:09:12.785Z,63.01
2016-07-23T12:10:12.769Z,63.01
2016-07-23T12:11:12.749Z,62.53
2016-07-23T12:12:12.735Z,62.63
2016-07-23T12:13:12.718Z,62.53
2016-07-23T12:14:12.701Z,62.24
2016-07-23T12:15:12.688Z,62.4
2016-07-23T12:16:12.679Z,62.43
2016-07-23T12:17:12.678Z,62.43
2016-07-23T12:18:12.646Z,62.34
2016-07-23T12:19:12.635Z,62.24
2016-07-23T12:20:12.628Z,62.34
2016-07-23T12:21:12.612Z,62.63
2016-07-23T12:22:12.596Z,62.53
2016-07-23T12:23:12.573Z,62.53
2016-07-23T12:24:12.565Z,62.43
2016-07-23T12:25:12.552Z,63.01
2016-07-23T12:26:12.534Z,62.63
2016-07-23T12:27:12.517Z,62.04
2016-07-23T12:28:12.505Z,62.63
2016-07-23T12:29:12.491Z,62.24
2016-07-23T12:30:12.474Z,62.63
2016-07-23T12:31:12.460Z,62.82
2016-07-23T12:32:12.449Z,62.63
2016-07-23T12:33:12.439Z,62.24
2016-07-23T12:34:12.416Z,62.92
2016-07-23T12:35:12.412Z,63.11
2016-07-23T12:36:12.390Z,62.72
2016-07-23T12:37:12.372Z,62.63
2016-07-23T12:38:12.363Z,62.63
2016-07-23T12:39:12.347Z,62.72
2016-07-23T12:40:12.335Z,63.01
2016-07-23T12:41:12.324Z,62.92
2016-07-23T12:42:12.299Z,62.43
2016-07-23T12:43:12.293Z,63.11
2016-07-23T12:44:11.569Z,62.92
2016-07-23T12:45:12.266Z,63.01
2016-07-23T12:46:12.243Z,63.79
2016-07-23T12:47:12.234Z,63.21
2016-07-23T12:48:12.218Z,63.11
2016-07-23T12:49:12.199Z,63.59
2016-07-23T12:50:11.480Z,63.59
2016-07-23T12:51:12.185Z,63.69
2016-07-23T12:52:12.158Z,63.31
2016-07-23T12:53:12.148Z,63.4
2016-07-23T12:54:12.135Z,63.01
2016-07-23T12:55:12.112Z,63.49
2016-07-23T12:56:12.098Z,63.79
2016-07-23T12:57:12.090Z,63.59